createdAt,value
2022-09-07T00:00:31.012Z,0.00
2022-09-07T00:01:31.033Z,0.00
2022-09-07T00:02:31.002Z,0.00
2022-09-07T00:03:31.028Z,0.00
2022-09-07T00:04:31.028Z,0.00
2022-09-07T00:05:30.939Z,0.00
2022-09-07T00:06:30.942Z,0.00
2022-09-07T00:07:30.921Z,0.00
2022-09-07T00:08:30.991Z,0.00
2022-09-07T00:09:30.889Z,0.00
2022-09-07T00:10:30.871Z,0.00
2022-09-07T00:11:30.853Z,0.00
2022-09-07T00:12:30.846Z,0.00
2022-09-07T00:13:30.848Z,0.00
2022-09-07T00:14:30.816Z,0.00
2022-09-07T00:15:30.796Z,0.00
2022-09-07T00:16:30.883Z,0.00
2022-09-07T00:17:30.787Z,0.00
2022-09-07T00:18:30.930Z,0.00
2022-09-07T00:19:30.742Z,0.00
2022-09-07T00:20:30.747Z,0.00
2022-09-07T00:21:30.719Z,0.00
2022-09-07T00:22:30.707Z,0.00
2022-09-07T00:23:30.684Z,0.00
2022-09-07T00:24:30.709Z,0.00
2022-09-07T00:25:32.027Z,0.00
2022-09-07T00:26:30.687Z,0.00
2022-09-07T00:27:30.639Z,0.00
2022-09-07T00:28:30.747Z,0.00
2022-09-07T00:29:30.611Z,0.00
2022-09-07T00:30:30.602Z,0.00
2022-09-07T00:31:30.692Z,0.00
2022-09-07T00:32:30.607Z,0.00
2022-09-07T00:33:30.552Z,0.00
2022-09-07T00:34:30.572Z,0.00
2022-09-07T00:35:30.555Z,0.00
2022-09-07T00:36:30.566Z,0.00
2022-09-07T00:37:30.525Z,0.00
2022-09-07T00:38:30.598Z,0.00
2022-09-07T00:39:30.572Z,0.00
2022-09-07T00:40:30.497Z,0.00
2022-09-07T00:41:30.464Z,0.00
2022-09-07T00:42:30.451Z,0.00
2022-09-07T00:43:30.421Z,0.00
2022-09-07T00:44:30.426Z,0.00
2022-09-07T00:45:30.432Z,0.00
2022-09-07T00:46:30.449Z,0.00
2022-09-07T00:47:30.377Z,0.00
2022-09-07T00:48:30.455Z,0.00
2022-09-07T00:49:30.349Z,0.00
2022-09-07T00:50:30.346Z,0.00
2022-09-07T00:51:30.347Z,0.00
2022-09-07T00:52:30.336Z,0.00
2022-09-07T00:53:30.318Z,0.00
2022-09-07T00:54:30.290Z,0.00
2022-09-07T00:55:30.285Z,0.00
2022-09-07T00:56:30.276Z,0.00
2022-09-07T00:57:30.261Z,0.00
2022-09-07T00:58:30.330Z,0.00
2022-09-07T00:59:30.296Z,0.00
2022-09-07T01:00:30.225Z,0.00
2022-09-07T01:01:30.296Z,0.00
2022-09-07T01:02:30.283Z,0.00
2022-09-07T01:03:30.210Z,0.00
2022-09-07T01:04:30.187Z,0.00
2022-09-07T01:05:30.164Z,0.00
2022-09-07T01:06:30.177Z,0.00
2022-09-07T01:07:30.106Z,0.00
2022-09-07T01:08:30.250Z,0.00
2022-09-07T01:09:30.082Z,0.00
2022-09-07T01:10:30.072Z,0.00
2022-09-07T01:11:30.053Z,0.00
2022-09-07T01:12:30.073Z,0.00
2022-09-07T01:13:30.052Z,0.00
2022-09-07T01:14:30.040Z,0.00
2022-09-07T01:15:29.999Z,0.00
2022-09-07T01:16:30.010Z,0.00
2022-09-07T01:17:29.960Z,0.00
2022-09-07T01:18:30.108Z,0.00
2022-09-07T01:19:29.961Z,0.00
2022-09-07T01:20:29.966Z,0.00
2022-09-07T01:21:29.908Z,0.00
2022-09-07T01:22:29.921Z,0.00
2022-09-07T01:23:29.892Z,0.00
2022-09-07T01:24:29.914Z,0.00
2022-09-07T01:25:29.860Z,0.00
2022-09-07T01:26:29.843Z,0.00
2022-09-07T01:27:29.853Z,0.00
2022-09-07T01:28:29.906Z,0.00
2022-09-07T01:29:29.885Z,0.00
2022-09-07T01:30:29.823Z,0.00
2022-09-07T01:31:29.857Z,0.00
2022-09-07T01:32:29.805Z,0.00
2022-09-07T01:33:29.781Z,0.00
2022-09-07T01:34:29.756Z,0.00
2022-09-07T01:35:29.736Z,0.00
2022-09-07T01:36:29.798Z,0.00
2022-09-07T01:37:29.695Z,0.00
2022-09-07T01:38:29.827Z,0.00
2022-09-07T01:39:29.748Z,0.00
2022-09-07T01:40:29.739Z,0.00
2022-09-07T01:41:29.659Z,0.00
2022-09-07T01:42:29.650Z,0.00
2022-09-07T01:43:29.633Z,0.00
2022-09-07T01:44:29.657Z,0.00
2022-09-07T01:45:29.599Z,0.00
2022-09-07T01:46:29.671Z,0.00
2022-09-07T01:47:29.569Z,0.00
2022-09-07T01:48:29.671Z,0.00
2022-09-07T01:49:29.557Z,0.00
2022-09-07T01:50:29.532Z,0.00
2022-09-07T01:51:29.516Z,0.00
2022-09-07T01:52:29.496Z,0.00
2022-09-07T01:53:29.493Z,0.00
2022-09-07T01:54:29.493Z,0.00
2022-09-07T01:55:29.472Z,0.00
2022-09-07T01:56:29.443Z,0.00
2022-09-07T01:57:29.443Z,0.00
2022-09-07T01:58:29.481Z,0.00
2022-09-07T01:59:29.412Z,0.00
2022-09-07T02:00:29.410Z,0.00
2022-09-07T02:01:29.402Z,0.00
2022-09-07T02:02:29.452Z,0.00
2022-09-07T02:03:29.382Z,0.00
2022-09-07T02:04:29.379Z,0.00
2022-09-07T02:05:29.368Z,0.00
2022-09-07T02:06:29.313Z,0.00
2022-09-07T02:07:29.316Z,0.00
2022-09-07T02:08:29.410Z,0.00
2022-09-07T02:09:29.259Z,0.00
2022-09-07T02:10:29.255Z,0.00
2022-09-07T02:11:29.238Z,0.00
2022-09-07T02:12:29.236Z,0.00
2022-09-07T02:13:29.201Z,0.00
2022-09-07T02:14:29.214Z,0.00
2022-09-07T02:15:29.218Z,0.00
2022-09-07T02:16:29.159Z,0.00
2022-09-07T02:17:29.159Z,0.00
2022-09-07T02:18:29.179Z,0.00
2022-09-07T02:19:29.126Z,0.00
2022-09-07T02:20:29.131Z,0.00
2022-09-07T02:21:29.089Z,0.00
2022-09-07T02:22:29.095Z,0.00
2022-09-07T02:23:29.105Z,0.00
2022-09-07T02:24:29.060Z,0.00
2022-09-07T02:25:29.049Z,0.00
2022-09-07T02:26:29.073Z,0.00
2022-09-07T02:27:29.018Z,0.00
2022-09-07T02:28:29.049Z,0.00
2022-09-07T02:29:30.986Z,0.00
2022-09-07T02:30:28.959Z,0.00
2022-09-07T02:31:29.039Z,0.00
2022-09-07T02:32:28.944Z,0.00
2022-09-07T02:33:28.939Z,0.00
2022-09-07T02:34:28.924Z,0.00
2022-09-07T02:35:28.907Z,0.00
2022-09-07T02:36:28.889Z,0.00
2022-09-07T02:37:28.990Z,0.00
2022-09-07T02:38:28.932Z,0.00
2022-09-07T02:39:28.872Z,0.00
2022-09-07T02:40:28.848Z,0.00
2022-09-07T02:41:28.822Z,0.00
2022-09-07T02:42:28.813Z,0.00
2022-09-07T02:43:28.840Z,0.00
2022-09-07T02:44:28.778Z,0.00
2022-09-07T02:45:28.793Z,0.00
2022-09-07T02:46:28.818Z,0.00
2022-09-07T02:47:28.763Z,0.00
2022-09-07T02:48:28.772Z,0.00
2022-09-07T02:49:28.711Z,0.00
2022-09-07T02:50:28.717Z,0.00
2022-09-07T02:51:28.687Z,0.00
2022-09-07T02:52:28.684Z,0.00
2022-09-07T02:53:28.678Z,0.00
2022-09-07T02:54:28.654Z,0.00
2022-09-07T02:55:28.635Z,0.00
2022-09-07T02:56:28.638Z,0.00
2022-09-07T02:57:28.606Z,0.00
2022-09-07T02:58:28.625Z,0.00
2022-09-07T02:59:28.573Z,0.00
2022-09-07T03:00:28.588Z,0.00
2022-09-07T03:01:28.626Z,0.00
2022-09-07T03:02:28.584Z,0.00
2022-09-07T03:03:28.556Z,0.00
2022-09-07T03:04:28.505Z,0.00
2022-09-07T03:05:28.517Z,0.00
2022-09-07T03:06:28.495Z,0.00
2022-09-07T03:07:28.497Z,0.00
2022-09-07T03:08:28.466Z,0.00
2022-09-07T03:09:28.453Z,0.00
2022-09-07T03:10:28.429Z,0.00
2022-09-07T03:11:28.436Z,0.00
2022-09-07T03:12:28.408Z,0.00
2022-09-07T03:13:28.416Z,0.00
2022-09-07T03:14:28.401Z,0.00
2022-09-07T03:15:28.440Z,0.00
2022-09-07T03:16:28.341Z,0.00
2022-09-07T03:17:28.327Z,0.00
2022-09-07T03:18:28.358Z,0.00
2022-09-07T03:19:28.306Z,0.00
2022-09-07T03:20:28.377Z,0.00
2022-09-07T03:21:28.277Z,0.00
2022-09-07T03:22:28.293Z,0.00
2022-09-07T03:23:28.325Z,0.00
2022-09-07T03:24:28.256Z,0.00
2022-09-07T03:25:28.227Z,0.00
2022-09-07T03:26:28.200Z,0.00
2022-09-07T03:27:28.205Z,0.00
2022-09-07T03:28:28.316Z,0.00
2022-09-07T03:29:28.199Z,0.00
2022-09-07T03:30:28.167Z,0.00
2022-09-07T03:31:28.187Z,0.00
2022-09-07T03:32:28.166Z,0.00
2022-09-07T03:33:28.104Z,0.00
2022-09-07T03:34:28.140Z,0.00
2022-09-07T03:35:28.109Z,0.00
2022-09-07T03:36:28.059Z,0.00
2022-09-07T03:37:28.051Z,0.00
2022-09-07T03:38:28.042Z,0.00
2022-09-07T03:39:28.088Z,0.00
2022-09-07T03:40:28.054Z,0.00
2022-09-07T03:41:28.060Z,0.00
2022-09-07T03:42:28.012Z,0.00
2022-09-07T03:43:27.963Z,0.00
2022-09-07T03:44:27.965Z,0.00
2022-09-07T03:45:28.006Z,0.00
2022-09-07T03:46:28.004Z,0.00
2022-09-07T03:47:27.926Z,0.00
2022-09-07T03:48:27.909Z,0.00
2022-09-07T03:49:27.893Z,0.00
2022-09-07T03:50:27.876Z,0.00
2022-09-07T03:51:27.923Z,0.00
2022-09-07T03:52:27.856Z,0.00
2022-09-07T03:53:27.882Z,0.00
2022-09-07T03:54:27.844Z,0.00
2022-09-07T03:55:27.832Z,0.00
2022-09-07T03:56:27.787Z,0.00
2022-09-07T03:57:27.786Z,0.00
2022-09-07T03:58:27.812Z,0.00
2022-09-07T03:59:27.777Z,0.00
2022-09-07T04:00:27.734Z,0.00
2022-09-07T04:01:27.792Z,0.00
2022-09-07T04:02:27.757Z,0.00
2022-09-07T04:03:27.709Z,0.00
2022-09-07T04:04:27.719Z,0.00
2022-09-07T04:05:27.690Z,0.00
2022-09-07T04:06:27.670Z,0.00
2022-09-07T04:07:27.639Z,0.00
2022-09-07T04:08:27.774Z,0.00
2022-09-07T04:09:27.626Z,0.00
2022-09-07T04:10:27.651Z,0.00
2022-09-07T04:11:27.591Z,0.00
2022-09-07T04:12:27.581Z,0.00
2022-09-07T04:13:27.571Z,0.00
2022-09-07T04:14:27.571Z,0.00
2022-09-07T04:15:27.533Z,0.00
2022-09-07T04:16:27.609Z,0.00
2022-09-07T04:17:27.536Z,0.00
2022-09-07T04:18:27.526Z,0.00
2022-09-07T04:19:27.487Z,0.00
2022-09-07T04:20:27.484Z,0.00
2022-09-07T04:21:27.504Z,0.00
2022-09-07T04:22:27.445Z,0.00
2022-09-07T04:23:27.416Z,0.00
2022-09-07T04:24:27.426Z,0.00
2022-09-07T04:25:27.415Z,0.00
2022-09-07T04:26:27.386Z,0.00
2022-09-07T04:27:27.415Z,0.00
2022-09-07T04:28:27.443Z,0.00
2022-09-07T04:29:27.356Z,0.00
2022-09-07T04:30:27.329Z,0.00
2022-09-07T04:31:27.426Z,0.00
2022-09-07T04:32:27.537Z,0.00
2022-09-07T04:33:27.287Z,0.00
2022-09-07T04:34:27.279Z,0.00
2022-09-07T04:35:27.293Z,0.00
2022-09-07T04:36:27.256Z,0.00
2022-09-07T04:37:27.239Z,0.00
2022-09-07T04:38:27.359Z,0.00
2022-09-07T04:39:27.250Z,0.00
2022-09-07T04:40:27.224Z,0.00
2022-09-07T04:41:27.200Z,0.00
2022-09-07T04:42:27.170Z,0.00
2022-09-07T04:43:27.162Z,0.00
2022-09-07T04:44:27.158Z,0.00
2022-09-07T04:45:27.131Z,0.00
2022-09-07T04:46:27.181Z,0.00
2022-09-07T04:47:27.106Z,0.00
2022-09-07T04:48:27.186Z,0.00
2022-09-07T04:49:27.082Z,0.00
2022-09-07T04:50:27.068Z,0.00
2022-09-07T04:51:27.051Z,0.00
2022-09-07T04:52:27.041Z,0.00
2022-09-07T04:53:27.012Z,0.00
2022-09-07T04:54:27.057Z,0.00
2022-09-07T04:55:27.006Z,0.00
2022-09-07T04:56:27.016Z,0.00
2022-09-07T04:57:26.986Z,0.00
2022-09-07T04:58:27.011Z,0.00
2022-09-07T04:59:26.961Z,5.62
2022-09-07T05:00:26.918Z,5.62
2022-09-07T05:01:26.960Z,5.62
2022-09-07T05:02:26.957Z,5.62
2022-09-07T05:03:26.897Z,5.62
2022-09-07T05:04:26.893Z,5.62
2022-09-07T05:05:26.881Z,5.62
2022-09-07T05:06:26.870Z,5.62
2022-09-07T05:07:26.868Z,5.62
2022-09-07T05:08:26.848Z,11.25
2022-09-07T05:09:26.823Z,11.25
2022-09-07T05:10:26.802Z,11.25
2022-09-07T05:11:29.529Z,11.25
2022-09-07T05:12:26.808Z,11.25
2022-09-07T05:13:26.754Z,11.25
2022-09-07T05:14:26.762Z,11.25
2022-09-07T05:15:26.748Z,16.88
2022-09-07T05:16:26.789Z,16.88
2022-09-07T05:17:26.711Z,16.88
2022-09-07T05:18:26.709Z,16.88
2022-09-07T05:19:26.699Z,16.88
2022-09-07T05:20:26.663Z,16.88
2022-09-07T05:21:26.669Z,22.50
2022-09-07T05:22:26.644Z,22.50
2022-09-07T05:23:26.630Z,22.50
2022-09-07T05:24:26.599Z,22.50
2022-09-07T05:25:26.610Z,22.50
2022-09-07T05:26:26.565Z,22.50
2022-09-07T05:27:26.565Z,22.50
2022-09-07T05:28:26.619Z,28.12
2022-09-07T05:31:27.589Z,28.12
2022-09-07T05:32:26.517Z,28.12
2022-09-07T05:35:26.469Z,28.12
2022-09-07T05:36:26.438Z,33.75
2022-09-07T05:37:26.452Z,33.75
2022-09-07T05:38:26.501Z,33.75
2022-09-07T05:39:26.454Z,33.75
2022-09-07T05:40:26.418Z,33.75
2022-09-07T05:41:26.386Z,33.75
2022-09-07T05:42:26.365Z,33.75
2022-09-07T05:43:26.355Z,33.75
2022-09-07T05:45:27.412Z,33.75
2022-09-07T05:46:26.305Z,33.75
2022-09-07T05:47:26.313Z,39.38
2022-09-07T05:48:26.321Z,39.38
2022-09-07T05:49:26.270Z,39.38
2022-09-07T05:50:26.252Z,39.38
2022-09-07T05:51:26.236Z,45.00
2022-09-07T05:52:26.217Z,45.00
2022-09-07T05:53:26.252Z,45.00
2022-09-07T05:54:26.202Z,45.00
2022-09-07T05:55:30.592Z,45.00
2022-09-07T05:56:26.195Z,50.62
2022-09-07T05:57:26.162Z,50.62
2022-09-07T05:58:26.147Z,50.62
2022-09-07T05:59:26.154Z,50.62
2022-09-07T06:00:26.135Z,50.62
2022-09-07T06:01:26.117Z,50.62
2022-09-07T06:02:26.176Z,50.62
2022-09-07T06:03:26.120Z,50.62
2022-09-07T06:04:26.047Z,50.62
2022-09-07T06:05:26.049Z,50.62
2022-09-07T06:06:26.032Z,56.25
2022-09-07T06:07:26.019Z,56.25
2022-09-07T06:08:26.005Z,61.88
2022-09-07T06:09:30.230Z,56.25
2022-09-07T06:11:26.994Z,61.88
2022-09-07T06:12:25.942Z,67.50
2022-09-07T06:13:25.997Z,67.50
2022-09-07T06:14:25.913Z,67.50
2022-09-07T06:15:25.912Z,73.12
2022-09-07T06:16:25.990Z,78.75
2022-09-07T06:17:25.946Z,73.12
2022-09-07T06:18:25.856Z,78.75
2022-09-07T06:19:25.851Z,78.75
2022-09-07T06:20:25.859Z,73.12
2022-09-07T06:21:25.829Z,84.38
2022-09-07T06:22:28.933Z,84.38
2022-09-07T06:23:26.853Z,84.38
2022-09-07T06:24:25.768Z,84.38
2022-09-07T06:25:25.786Z,90.00
2022-09-07T06:26:25.749Z,84.38
2022-09-07T06:27:25.738Z,84.38
2022-09-07T06:28:25.770Z,84.38
2022-09-07T06:29:25.732Z,84.38
2022-09-07T06:30:25.706Z,84.38
2022-09-07T06:31:25.746Z,84.38
2022-09-07T06:33:26.678Z,95.62
2022-09-07T06:34:25.646Z,95.62
2022-09-07T06:35:25.646Z,90.00
2022-09-07T06:36:25.632Z,90.00
2022-09-07T06:37:25.618Z,90.00
2022-09-07T06:38:28.789Z,84.38
2022-09-07T06:39:26.639Z,90.00
2022-09-07T06:40:25.607Z,90.00
2022-09-07T06:42:26.538Z,90.00
2022-09-07T06:43:25.584Z,90.00
2022-09-07T06:44:25.509Z,95.62
2022-09-07T06:45:25.587Z,95.62
2022-09-07T06:47:26.522Z,101.25
2022-09-07T06:48:25.479Z,118.12
2022-09-07T06:49:25.466Z,123.75
2022-09-07T06:50:25.467Z,140.62
2022-09-07T06:51:25.442Z,151.88
2022-09-07T06:52:25.443Z,151.88
2022-09-07T06:53:43.111Z,157.50
2022-09-07T06:55:26.371Z,196.88
2022-09-07T06:56:25.353Z,202.50
2022-09-07T06:57:25.338Z,208.12
2022-09-07T06:58:25.444Z,196.88
2022-09-07T06:59:25.323Z,213.75
2022-09-07T07:00:25.354Z,196.88
2022-09-07T07:01:25.317Z,219.38
2022-09-07T07:02:25.272Z,196.88
2022-09-07T07:03:25.322Z,213.75
2022-09-07T07:04:25.237Z,219.38
2022-09-07T07:05:25.229Z,219.38
2022-09-07T07:06:25.209Z,213.75
2022-09-07T07:07:25.248Z,213.75
2022-09-07T07:08:25.238Z,208.12
2022-09-07T07:09:25.195Z,202.50
2022-09-07T07:10:25.385Z,208.12
2022-09-07T07:11:25.137Z,202.50
2022-09-07T07:12:56.374Z,213.75
2022-09-07T07:13:56.360Z,202.50
2022-09-07T07:14:56.340Z,196.88
2022-09-07T07:15:56.364Z,196.88
2022-09-07T07:16:56.302Z,180.00
2022-09-07T07:18:05.136Z,168.75
2022-09-07T07:18:57.296Z,163.12
2022-09-07T07:19:56.276Z,157.50
2022-09-07T07:20:56.254Z,157.50
2022-09-07T07:22:57.233Z,151.88
2022-09-07T07:23:56.222Z,146.25
2022-09-07T07:24:56.218Z,146.25
2022-09-07T07:25:56.186Z,140.62
2022-09-07T07:26:56.179Z,140.62
2022-09-07T07:27:56.862Z,157.50
2022-09-07T07:29:56.146Z,168.75
2022-09-07T07:30:56.132Z,163.12
2022-09-07T07:31:56.107Z,168.75
2022-09-07T07:32:56.170Z,163.12
2022-09-07T07:33:56.174Z,168.75
2022-09-07T07:34:56.054Z,174.38
2022-09-07T07:35:56.073Z,168.75
2022-09-07T07:36:56.050Z,157.50
2022-09-07T07:42:00.064Z,191.25
2022-09-07T07:42:56.979Z,174.38
2022-09-07T07:43:55.978Z,163.12
2022-09-07T07:45:57.830Z,157.50
2022-09-07T07:46:55.952Z,163.12
2022-09-07T07:47:55.903Z,174.38
2022-09-07T07:48:55.882Z,180.00
2022-09-07T07:50:30.864Z,196.88
2022-09-07T07:50:56.857Z,185.62
2022-09-07T07:53:57.118Z,191.25
2022-09-07T07:54:55.843Z,202.50
2022-09-07T07:55:55.821Z,208.12
2022-09-07T07:56:55.789Z,219.38
2022-09-07T07:57:55.815Z,225.00
2022-09-07T07:58:55.747Z,225.00
2022-09-07T07:59:55.760Z,202.50
2022-09-07T08:00:56.511Z,185.62
2022-09-07T08:01:55.809Z,174.38
2022-09-07T08:02:55.688Z,163.12
2022-09-07T08:03:55.718Z,151.88
2022-09-07T08:04:55.682Z,140.62
2022-09-07T08:05:55.677Z,135.00
2022-09-07T08:06:55.650Z,123.75
2022-09-07T08:07:55.635Z,112.50
2022-09-07T08:08:55.632Z,106.88
2022-09-07T08:09:55.619Z,101.25
2022-09-07T08:10:55.599Z,95.62
2022-09-07T08:11:55.601Z,95.62
2022-09-07T08:12:55.571Z,90.00
2022-09-07T08:13:55.541Z,90.00
2022-09-07T08:14:55.544Z,84.38
2022-09-07T08:15:55.547Z,84.38
2022-09-07T08:16:55.502Z,84.38
2022-09-07T08:17:55.504Z,84.38
2022-09-07T08:18:55.490Z,84.38
2022-09-07T08:19:55.498Z,78.75
2022-09-07T08:20:55.464Z,78.75
2022-09-07T08:21:55.448Z,67.50
2022-09-07T08:22:55.444Z,61.88
2022-09-07T08:23:55.424Z,61.88
2022-09-07T08:24:55.429Z,61.88
2022-09-07T08:25:55.400Z,56.25
2022-09-07T08:26:55.364Z,56.25
2022-09-07T08:27:55.366Z,50.62
2022-09-07T08:28:55.371Z,50.62
2022-09-07T08:29:55.335Z,50.62
2022-09-07T08:30:55.337Z,50.62
2022-09-07T08:31:55.351Z,45.00
2022-09-07T08:32:55.304Z,45.00
2022-09-07T08:33:55.297Z,50.62
2022-09-07T08:34:55.297Z,50.62
2022-09-07T08:35:55.275Z,50.62
2022-09-07T08:36:55.255Z,50.62
2022-09-07T08:37:55.282Z,56.25
2022-09-07T08:38:55.240Z,56.25
2022-09-07T08:39:55.288Z,61.88
2022-09-07T08:40:55.209Z,61.88
2022-09-07T08:41:55.224Z,67.50
2022-09-07T08:42:55.149Z,67.50
2022-09-07T08:43:55.154Z,67.50
2022-09-07T08:44:55.179Z,73.12
2022-09-07T08:45:55.172Z,73.12
2022-09-07T08:46:55.167Z,73.12
2022-09-07T08:47:55.115Z,73.12
2022-09-07T08:48:55.115Z,78.75
2022-09-07T08:49:55.086Z,78.75
2022-09-07T08:50:55.087Z,78.75
2022-09-07T08:51:55.072Z,90.00
2022-09-07T08:52:55.030Z,95.62
2022-09-07T08:53:55.038Z,101.25
2022-09-07T08:54:55.019Z,112.50
2022-09-07T08:55:54.987Z,118.12
2022-09-07T08:57:55.979Z,129.38
2022-09-07T08:58:54.958Z,135.00
2022-09-07T08:59:54.985Z,135.00
2022-09-07T09:01:30.737Z,140.62
2022-09-07T09:05:55.991Z,135.00
2022-09-07T09:06:54.947Z,146.25
2022-09-07T09:07:54.837Z,163.12
2022-09-07T09:08:54.825Z,191.25
2022-09-07T09:09:54.801Z,185.62
2022-09-07T09:10:54.798Z,191.25
2022-09-07T09:12:03.485Z,174.38
2022-09-07T09:12:54.777Z,191.25
2022-09-07T09:14:03.521Z,225.00
2022-09-07T09:14:54.737Z,241.88
2022-09-07T09:15:54.774Z,236.25
2022-09-07T09:16:54.698Z,247.50
2022-09-07T09:17:54.823Z,241.88
2022-09-07T09:18:54.666Z,247.50
2022-09-07T09:19:54.690Z,241.88
2022-09-07T09:20:54.652Z,241.88
2022-09-07T09:21:54.645Z,236.25
2022-09-07T09:22:54.665Z,230.62
2022-09-07T09:23:54.628Z,225.00
2022-09-07T09:24:54.863Z,225.00
2022-09-07T09:25:54.583Z,236.25
2022-09-07T09:26:54.606Z,241.88
2022-09-07T09:27:54.570Z,241.88
2022-09-07T09:28:54.592Z,219.38
2022-09-07T09:29:54.514Z,208.12
2022-09-07T09:30:54.650Z,225.00
2022-09-07T09:31:54.515Z,185.62
2022-09-07T09:32:54.476Z,185.62
2022-09-07T09:33:54.523Z,191.25
2022-09-07T09:34:54.451Z,196.88
2022-09-07T09:35:54.457Z,185.62
2022-09-07T09:36:54.420Z,191.25
2022-09-07T09:37:54.418Z,191.25
2022-09-07T09:38:54.426Z,191.25
2022-09-07T09:39:55.512Z,213.75
2022-09-07T09:40:54.389Z,236.25
2022-09-07T09:41:54.358Z,258.75
2022-09-07T09:42:54.338Z,230.62
2022-09-07T09:43:54.326Z,213.75
2022-09-07T09:44:54.349Z,225.00
2022-09-07T09:47:55.314Z,230.62
2022-09-07T09:48:54.266Z,236.25
2022-09-07T09:49:54.283Z,230.62
2022-09-07T09:52:55.242Z,241.88
2022-09-07T09:53:54.194Z,230.62
2022-09-07T09:54:55.830Z,225.00
2022-09-07T09:55:54.226Z,230.62
2022-09-07T09:56:54.173Z,236.25
2022-09-07T09:59:57.455Z,202.50
2022-09-07T10:03:55.701Z,219.38
2022-09-07T10:04:54.087Z,213.75
2022-09-07T10:05:54.057Z,219.38
2022-09-07T10:06:54.089Z,230.62
2022-09-07T10:07:54.023Z,219.38
2022-09-07T10:08:53.998Z,241.88
2022-09-07T10:09:54.006Z,281.25
2022-09-07T10:10:54.007Z,326.25
2022-09-07T10:12:09.578Z,303.75
2022-09-07T10:12:54.966Z,264.38
2022-09-07T10:13:53.938Z,258.75
2022-09-07T10:14:53.921Z,225.00
2022-09-07T10:15:54.047Z,196.88
2022-09-07T10:16:53.999Z,247.50
2022-09-07T10:17:53.921Z,219.38
2022-09-07T10:18:53.901Z,213.75
2022-09-07T10:19:53.876Z,225.00
2022-09-07T10:20:53.851Z,253.12
2022-09-07T10:21:53.852Z,303.75
2022-09-07T10:22:53.852Z,326.25
2022-09-07T10:23:53.990Z,326.25
2022-09-07T10:24:53.798Z,270.00
2022-09-07T10:25:53.807Z,264.38
2022-09-07T10:26:53.777Z,247.50
2022-09-07T10:27:53.824Z,225.00
2022-09-07T10:29:09.758Z,230.62
2022-09-07T10:29:54.741Z,225.00
2022-09-07T10:30:53.772Z,196.88
2022-09-07T10:31:53.706Z,196.88
2022-09-07T10:32:53.718Z,213.75
2022-09-07T10:34:54.681Z,253.12
2022-09-07T10:35:53.629Z,225.00
2022-09-07T10:36:53.622Z,219.38
2022-09-07T10:37:53.619Z,208.12
2022-09-07T10:38:53.663Z,213.75
2022-09-07T10:39:58.186Z,247.50
2022-09-07T10:40:54.629Z,281.25
2022-09-07T10:41:53.550Z,303.75
2022-09-07T10:43:54.563Z,303.75
2022-09-07T10:44:53.512Z,298.12
2022-09-07T10:45:53.597Z,298.12
2022-09-07T10:46:57.171Z,303.75
2022-09-07T10:47:53.482Z,309.38
2022-09-07T10:48:53.483Z,309.38
2022-09-07T10:50:54.434Z,309.38
2022-09-07T10:51:53.436Z,303.75
2022-09-07T10:52:53.502Z,303.75
2022-09-07T10:54:54.439Z,315.00
2022-09-07T10:55:53.552Z,320.62
2022-09-07T10:56:53.418Z,331.88
2022-09-07T10:57:53.372Z,337.50
2022-09-07T10:59:08.642Z,337.50
2022-09-07T11:00:10.359Z,371.25
2022-09-07T11:00:54.366Z,331.88
2022-09-07T11:01:53.356Z,348.75
2022-09-07T11:03:54.431Z,376.88
2022-09-07T11:04:53.441Z,360.00
2022-09-07T11:05:53.864Z,292.50
2022-09-07T11:06:53.233Z,286.88
2022-09-07T11:07:53.214Z,286.88
2022-09-07T11:09:54.245Z,258.75
2022-09-07T11:10:53.213Z,253.12
2022-09-07T11:12:01.150Z,253.12
2022-09-07T11:12:54.143Z,247.50
2022-09-07T11:14:12.183Z,236.25
2022-09-07T11:14:54.183Z,213.75
2022-09-07T11:15:53.110Z,213.75
2022-09-07T11:16:53.243Z,208.12
2022-09-07T11:17:53.457Z,258.75
2022-09-07T11:19:34.185Z,303.75
2022-09-07T11:19:54.085Z,286.88
2022-09-07T11:20:53.056Z,275.62
2022-09-07T11:21:56.503Z,264.38
2022-09-07T11:22:53.028Z,298.12
2022-09-07T11:23:53.016Z,253.12
2022-09-07T11:25:54.034Z,270.00
2022-09-07T11:26:52.949Z,258.75
2022-09-07T11:27:52.939Z,264.38
2022-09-07T11:29:53.943Z,236.25
2022-09-07T11:30:56.609Z,225.00
2022-09-07T11:31:53.890Z,208.12
2022-09-07T11:32:52.873Z,213.75
2022-09-07T11:34:53.865Z,247.50
2022-09-07T11:35:52.853Z,270.00
2022-09-07T11:36:52.862Z,298.12
2022-09-07T11:37:52.809Z,309.38
2022-09-07T11:38:52.783Z,331.88
2022-09-07T11:39:52.851Z,309.38
2022-09-07T11:40:52.789Z,343.12
2022-09-07T11:41:52.768Z,337.50
2022-09-07T11:42:52.742Z,331.88
2022-09-07T11:43:52.754Z,281.25
2022-09-07T11:44:52.802Z,315.00
2022-09-07T11:45:52.761Z,303.75
2022-09-07T11:46:52.688Z,292.50
2022-09-07T11:47:52.687Z,303.75
2022-09-07T11:48:52.697Z,298.12
2022-09-07T11:49:56.044Z,275.62
2022-09-07T11:50:53.678Z,286.88
2022-09-07T11:51:53.992Z,298.12
2022-09-07T11:52:53.923Z,270.00
2022-09-07T11:53:52.599Z,253.12
2022-09-07T11:54:52.690Z,264.38
2022-09-07T11:55:52.626Z,270.00
2022-09-07T11:56:52.673Z,298.12
2022-09-07T11:57:55.458Z,399.38
2022-09-07T11:58:52.530Z,427.50
2022-09-07T11:59:52.532Z,427.50
2022-09-07T12:00:52.523Z,433.12
2022-09-07T12:01:52.484Z,438.75
2022-09-07T12:03:00.741Z,393.75
2022-09-07T12:03:53.568Z,360.00
2022-09-07T12:04:56.186Z,365.62
2022-09-07T12:05:52.458Z,393.75
2022-09-07T12:06:52.456Z,410.62
2022-09-07T12:07:52.528Z,421.88
2022-09-07T12:08:52.475Z,360.00
2022-09-07T12:09:52.396Z,365.62
2022-09-07T12:10:52.362Z,230.62
2022-09-07T12:11:52.346Z,236.25
2022-09-07T12:12:52.350Z,303.75
2022-09-07T12:13:52.315Z,208.12
2022-09-07T12:14:52.437Z,208.12
2022-09-07T12:15:52.419Z,292.50
2022-09-07T12:16:52.482Z,286.88
2022-09-07T12:17:52.324Z,275.62
2022-09-07T12:18:52.632Z,292.50
2022-09-07T12:19:52.259Z,292.50
2022-09-07T12:20:52.313Z,309.38
2022-09-07T12:21:52.247Z,309.38
2022-09-07T12:22:52.252Z,298.12
2022-09-07T12:23:52.216Z,292.50
2022-09-07T12:24:52.261Z,326.25
2022-09-07T12:25:52.204Z,337.50
2022-09-07T12:26:52.203Z,337.50
2022-09-07T12:27:52.179Z,348.75
2022-09-07T12:28:52.218Z,371.25
2022-09-07T12:29:52.145Z,399.38
2022-09-07T12:30:52.188Z,427.50
2022-09-07T12:32:07.628Z,421.88
2022-09-07T12:32:54.321Z,388.12
2022-09-07T12:33:52.056Z,258.75
2022-09-07T12:34:52.313Z,225.00
2022-09-07T12:35:52.022Z,230.62
2022-09-07T12:36:52.089Z,253.12
2022-09-07T12:37:52.020Z,270.00
2022-09-07T12:38:52.038Z,258.75
2022-09-07T12:39:52.018Z,264.38
2022-09-07T12:40:52.007Z,275.62
2022-09-07T12:42:31.798Z,399.38
2022-09-07T12:42:52.952Z,315.00
2022-09-07T12:43:52.031Z,354.38
2022-09-07T12:44:51.991Z,455.62
2022-09-07T12:45:52.028Z,461.25
2022-09-07T12:46:51.894Z,466.88
2022-09-07T12:47:51.902Z,455.62
2022-09-07T12:48:51.862Z,461.25
2022-09-07T12:49:51.902Z,489.38
2022-09-07T12:50:51.892Z,444.38
2022-09-07T12:52:00.243Z,410.62
2022-09-07T12:52:52.833Z,393.75
2022-09-07T12:53:56.946Z,393.75
2022-09-07T12:55:10.053Z,405.00
2022-09-07T12:57:52.776Z,247.50
2022-09-07T12:58:51.754Z,303.75
2022-09-07T12:59:51.739Z,382.50
2022-09-07T13:00:51.747Z,326.25
2022-09-07T13:01:51.913Z,225.00
2022-09-07T13:02:52.740Z,213.75
2022-09-07T13:04:05.140Z,219.38
2022-09-07T13:04:52.807Z,241.88
2022-09-07T13:05:52.342Z,309.38
2022-09-07T13:07:07.091Z,309.38
2022-09-07T13:07:55.798Z,270.00
2022-09-07T13:08:52.766Z,281.25
2022-09-07T13:09:52.045Z,225.00
2022-09-07T13:10:51.996Z,230.62
2022-09-07T13:11:51.592Z,236.25
2022-09-07T13:12:53.296Z,247.50
2022-09-07T13:14:09.348Z,253.12
2022-09-07T13:14:53.020Z,247.50
2022-09-07T13:15:51.636Z,270.00
2022-09-07T13:17:52.528Z,264.38
2022-09-07T13:18:52.469Z,421.88
2022-09-07T13:19:51.616Z,523.12
2022-09-07T13:20:51.773Z,528.75
2022-09-07T13:21:51.457Z,478.12
2022-09-07T13:22:51.506Z,495.00
2022-09-07T13:23:51.438Z,326.25
2022-09-07T13:24:51.919Z,483.75
2022-09-07T13:25:51.450Z,427.50
2022-09-07T13:26:51.726Z,421.88
2022-09-07T13:27:51.506Z,270.00
2022-09-07T13:28:51.355Z,258.75
2022-09-07T13:29:51.355Z,247.50
2022-09-07T13:30:51.346Z,241.88
2022-09-07T13:32:05.001Z,253.12
2022-09-07T13:33:14.317Z,275.62
2022-09-07T13:33:52.326Z,455.62
2022-09-07T13:34:51.313Z,455.62
2022-09-07T13:35:51.331Z,427.50
2022-09-07T13:36:51.338Z,416.25